sensor_id;sensor_type;location;lat;lon;timestamp;pressure;altitude;pressure_sealevel;temperature;humidity
37420;BME280;47344;52.374;4.816;2023-02-14T00:00:21;103445.0;;;6.14;100.0
37420;BME280;47344;52.374;4.816;2023-02-14T00:01:57;103448.0;;;6.12;100.0
37420;BME280;47344;52.374;4.816;2023-02-14T00:05:10;103442.0;;;6.1;100.0
37420;BME280;47344;52.374;4.816;2023-02-14T00:06:46;103449.0;;;6.07;100.0
37420;BME280;47344;52.374;4.816;2023-02-14T00:08:23;103448.0;;;6.19;100.0
37420;BME280;47344;52.374;4.816;2023-02-14T00:11:35;103445.0;;;6.31;100.0
37420;BME280;47344;52.374;4.816;2023-02-14T00:13:12;103445.0;;;6.35;100.0
37420;BME280;47344;52.374;4.816;2023-02-14T00:15:53;103450.0;;;6.53;100.0
37420;BME280;47344;52.374;4.816;2023-02-14T00:17:30;103448.0;;;6.52;100.0
37420;BME280;47344;52.374;4.816;2023-02-14T00:19:07;103450.0;;;6.39;100.0
37420;BME280;47344;52.374;4.816;2023-02-14T00:20:43;103445.0;;;6.4;100.0
37420;BME280;47344;52.374;4.816;2023-02-14T00:23:55;103445.0;;;6.32;100.0
37420;BME280;47344;52.374;4.816;2023-02-14T00:25:32;103439.00000000001;;;6.5;100.0
37420;BME280;47344;52.374;4.816;2023-02-14T00:27:09;103443.0;;;6.54;100.0
37420;BME280;47344;52.374;4.816;2023-02-14T00:30:21;103434.99999999999;;;6.32;100.0
37420;BME280;47344;52.374;4.816;2023-02-14T00:31:58;103440.00000000001;;;6.32;100.0
37420;BME280;47344;52.374;4.816;2023-02-14T00:33:35;103434.99999999999;;;6.11;100.0
37420;BME280;47344;52.374;4.816;2023-02-14T00:36:50;103439.00000000001;;;6.01;100.0
37420;BME280;47344;52.374;4.816;2023-02-14T00:38:27;103438.00000000001;;;5.98;100.0
37420;BME280;47344;52.374;4.816;2023-02-14T00:40:05;103433.99999999999;;;5.87;100.0
37420;BME280;47344;52.374;4.816;2023-02-14T00:41:42;103432.0;;;5.78;100.0
37420;BME280;47344;52.374;4.816;2023-02-14T00:44:54;103428.0;;;5.73;100.0
37420;BME280;47344;52.374;4.816;2023-02-14T00:46:31;103424.0;;;5.68;100.0
37420;BME280;47344;52.374;4.816;2023-02-14T00:48:08;103423.0;;;5.67;100.0
37420;BME280;47344;52.374;4.816;2023-02-14T00:51:21;103427.0;;;5.68;100.0
37420;BME280;47344;52.374;4.816;2023-02-14T00:52:57;103427.0;;;5.66;100.0
37420;BME280;47344;52.374;4.816;2023-02-14T00:54:33;103422.0;;;5.65;100.0
37420;BME280;47344;52.374;4.816;2023-02-14T00:57:47;103420.0;;;5.59;100.0
37420;BME280;47344;52.374;4.816;2023-02-14T00:59:23;103414.00000000001;;;5.59;100.0
37420;BME280;47344;52.374;4.816;2023-02-14T01:00:59;103415.00000000001;;;5.44;100.0
37420;BME280;47344;52.374;4.816;2023-02-14T01:02:35;103416.00000000001;;;5.46;100.0
37420;BME280;47344;52.374;4.816;2023-02-14T01:05:48;103414.00000000001;;;5.48;100.0
37420;BME280;47344;52.374;4.816;2023-02-14T01:07:25;103422.0;;;5.38;100.0
37420;BME280;47344;52.374;4.816;2023-02-14T01:09:01;103419.0;;;5.32;100.0
37420;BME280;47344;52.374;4.816;2023-02-14T01:12:15;103415.00000000001;;;5.53;100.0
37420;BME280;47344;52.374;4.816;2023-02-14T01:13:54;103411.99999999999;;;5.33;100.0
37420;BME280;47344;52.374;4.816;2023-02-14T01:15:33;103408.99999999999;;;5.24;100.0
37420;BME280;47344;52.374;4.816;2023-02-14T01:17:13;103409.99999999999;;;5.44;100.0
37420;BME280;47344;52.374;4.816;2023-02-14T01:20:26;103407.0;;;5.32;100.0
37420;BME280;47344;52.374;4.816;2023-02-14T01:22:02;103409.99999999999;;;5.34;100.0
37420;BME280;47344;52.374;4.816;2023-02-14T01:23:39;103414.00000000001;;;5.3;100.0
37420;BME280;47344;52.374;4.816;2023-02-14T01:26:53;103409.99999999999;;;5.33;100.0
37420;BME280;47344;52.374;4.816;2023-02-14T01:28:29;103407.0;;;5.28;100.0
37420;BME280;47344;52.374;4.816;2023-02-14T01:30:06;103407.0;;;5.19;100.0
37420;BME280;47344;52.374;4.816;2023-02-14T01:33:20;103407.0;;;5.22;100.0
37420;BME280;47344;52.374;4.816;2023-02-14T01:34:56;103408.99999999999;;;5.11;100.0
37420;BME280;47344;52.374;4.816;2023-02-14T01:36:36;103411.99999999999;;;5.05;100.0
37420;BME280;47344;52.374;4.816;2023-02-14T01:38:14;103407.0;;;5.18;100.0
37420;BME280;47344;52.374;4.816;2023-02-14T01:41:28;103407.0;;;5.29;100.0
37420;BME280;47344;52.374;4.816;2023-02-14T01:43:10;103403.0;;;5.3;100.0
37420;BME280;47344;52.374;4.816;2023-02-14T01:44:58;103407.0;;;5.16;100.0
37420;BME280;47344;52.374;4.816;2023-02-14T01:46:41;103403.0;;;5.08;100.0
37420;BME280;47344;52.374;4.816;2023-02-14T01:50:03;103402.0;;;5.08;100.0
37420;BME280;47344;52.374;4.816;2023-02-14T01:51:45;103400.0;;;4.99;100.0
37420;BME280;47344;52.374;4.816;2023-02-14T01:53:25;103396.0;;;4.96;100.0
37420;BME280;47344;52.374;4.816;2023-02-14T01:55:05;103400.0;;;4.97;100.0
37420;BME280;47344;52.374;4.816;2023-02-14T01:58:28;103398.0;;;4.89;100.0
37420;BME280;47344;52.374;4.816;2023-02-14T02:01:11;103393.0;;;4.82;100.0
37420;BME280;47344;52.374;4.816;2023-02-14T02:02:49;103392.0;;;4.86;100.0
37420;BME280;47344;52.374;4.816;2023-02-14T02:06:12;103394.0;;;4.83;100.0
37420;BME280;47344;52.374;4.816;2023-02-14T02:07:51;103399.0;;;4.82;100.0
37420;BME280;47344;52.374;4.816;2023-02-14T02:09:32;103393.0;;;4.72;100.0
37420;BME280;47344;52.374;4.816;2023-02-14T02:12:47;103395.0;;;4.76;100.0
37420;BME280;47344;52.374;4.816;2023-02-14T02:14:26;103398.0;;;4.89;100.0
37420;BME280;47344;52.374;4.816;2023-02-14T02:16:18;103398.0;;;4.8;100.0
37420;BME280;47344;52.374;4.816;2023-02-14T02:18:02;103397.0;;;4.74;100.0
37420;BME280;47344;52.374;4.816;2023-02-14T02:24:03;103393.0;;;4.66;100.0
37420;BME280;47344;52.374;4.816;2023-02-14T02:27:30;103394.0;;;4.64;100.0
37420;BME280;47344;52.374;4.816;2023-02-14T02:30:33;103394.0;;;4.61;100.0
37420;BME280;47344;52.374;4.816;2023-02-14T02:36:29;103395.0;;;4.75;100.0
37420;BME280;47344;52.374;4.816;2023-02-14T02:38:31;103392.0;;;4.66;100.0
37420;BME280;47344;52.374;4.816;2023-02-14T02:40:25;103392.0;;;4.64;100.0
37420;BME280;47344;52.374;4.816;2023-02-14T02:42:09;103389.00000000001;;;4.61;100.0
37420;BME280;47344;52.374;4.816;2023-02-14T02:44:04;103392.0;;;4.57;100.0
37420;BME280;47344;52.374;4.816;2023-02-14T02:46:52;103396.0;;;4.7;100.0
37420;BME280;47344;52.374;4.816;2023-02-14T02:48:39;103393.0;;;4.71;100.0
37420;BME280;47344;52.374;4.816;2023-02-14T02:54:34;103391.00000000001;;;4.68;100.0
37420;BME280;47344;52.374;4.816;2023-02-14T02:57:21;103384.99999999999;;;4.55;100.0
37420;BME280;47344;52.374;4.816;2023-02-14T02:59:04;103383.0;;;4.53;100.0
37420;BME280;47344;52.374;4.816;2023-02-14T03:00:45;103381.0;;;4.41;100.0
37420;BME280;47344;52.374;4.816;2023-02-14T03:02:27;103382.0;;;4.37;100.0
37420;BME280;47344;52.374;4.816;2023-02-14T03:05:09;103376.0;;;4.37;100.0
37420;BME280;47344;52.374;4.816;2023-02-14T03:06:45;103375.0;;;4.45;100.0
37420;BME280;47344;52.374;4.816;2023-02-14T03:08:22;103378.0;;;4.64;100.0
37420;BME280;47344;52.374;4.816;2023-02-14T03:11:42;103375.0;;;4.49;100.0
37420;BME280;47344;52.374;4.816;2023-02-14T03:13:37;103376.0;;;4.57;100.0
37420;BME280;47344;52.374;4.816;2023-02-14T03:15:40;103370.0;;;4.53;100.0
37420;BME280;47344;52.374;4.816;2023-02-14T03:19:39;103373.0;;;4.45;100.0
37420;BME280;47344;52.374;4.816;2023-02-14T03:22:33;103368.0;;;4.41;100.0
37420;BME280;47344;52.374;4.816;2023-02-14T03:24:24;103368.0;;;4.45;100.0
37420;BME280;47344;52.374;4.816;2023-02-14T03:26:09;103370.0;;;4.43;100.0
37420;BME280;47344;52.374;4.816;2023-02-14T03:27:54;103368.0;;;4.33;100.0
37420;BME280;47344;52.374;4.816;2023-02-14T03:29:42;103368.0;;;4.36;100.0
37420;BME280;47344;52.374;4.816;2023-02-14T03:31:27;103367.0;;;4.32;100.0
37420;BME280;47344;52.374;4.816;2023-02-14T03:33:15;103367.0;;;4.29;100.0
37420;BME280;47344;52.374;4.816;2023-02-14T03:36:44;103365.00000000001;;;4.28;100.0
37420;BME280;47344;52.374;4.816;2023-02-14T03:38:29;103364.00000000001;;;4.37;100.0
37420;BME280;47344;52.374;4.816;2023-02-14T03:40:12;103363.00000000001;;;4.28;100.0
37420;BME280;47344;52.374;4.816;2023-02-14T03:41:55;103367.0;;;4.21;100.0
37420;BME280;47344;52.374;4.816;2023-02-14T03:45:22;103361.99999999999;;;4.26;100.0
37420;BME280;47344;52.374;4.816;2023-02-14T03:47:06;103361.99999999999;;;4.32;100.0
37420;BME280;47344;52.374;4.816;2023-02-14T03:48:46;103365.00000000001;;;4.38;100.0
37420;BME280;47344;52.374;4.816;2023-02-14T03:50:26;103367.0;;;4.33;100.0
37420;BME280;47344;52.374;4.816;2023-02-14T03:52:08;103369.0;;;4.36;100.0
37420;BME280;47344;52.374;4.816;2023-02-14T03:55:34;103368.0;;;4.32;100.0
37420;BME280;47344;52.374;4.816;2023-02-14T03:57:19;103367.0;;;4.26;100.0
37420;BME280;47344;52.374;4.816;2023-02-14T03:59:02;103367.0;;;4.18;100.0
37420;BME280;47344;52.374;4.816;2023-02-14T04:00:42;103358.99999999999;;;4.26;100.0
37420;BME280;47344;52.374;4.816;2023-02-14T04:04:05;103366.00000000001;;;4.16;100.0
37420;BME280;47344;52.374;4.816;2023-02-14T04:05:46;103367.0;;;4.12;100.0
37420;BME280;47344;52.374;4.816;2023-02-14T04:07:23;103361.99999999999;;;4.05;100.0
37420;BME280;47344;52.374;4.816;2023-02-14T04:08:59;103359.99999999999;;;4.12;100.0
37420;BME280;47344;52.374;4.816;2023-02-14T04:12:16;103356.0;;;4.16;100.0
37420;BME280;47344;52.374;4.816;2023-02-14T04:13:53;103357.0;;;4.22;100.0
37420;BME280;47344;52.374;4.816;2023-02-14T04:15:29;103361.99999999999;;;4.39;100.0
37420;BME280;47344;52.374;4.816;2023-02-14T04:21:04;103363.00000000001;;;4.63;100.0
37420;BME280;47344;52.374;4.816;2023-02-14T04:22:40;103359.99999999999;;;4.78;100.0
37420;BME280;47344;52.374;4.816;2023-02-14T04:24:17;103365.00000000001;;;4.8;100.0
37420;BME280;47344;52.374;4.816;2023-02-14T04:25:54;103363.00000000001;;;4.75;100.0
37420;BME280;47344;52.374;4.816;2023-02-14T04:29:06;103366.00000000001;;;4.88;100.0
37420;BME280;47344;52.374;4.816;2023-02-14T04:30:42;103367.0;;;4.92;100.0
37420;BME280;47344;52.374;4.816;2023-02-14T04:32:20;103364.00000000001;;;4.87;100.0
37420;BME280;47344;52.374;4.816;2023-02-14T04:33:57;103368.0;;;4.95;100.0
37420;BME280;47344;52.374;4.816;2023-02-14T04:37:10;103367.0;;;4.99;100.0
37420;BME280;47344;52.374;4.816;2023-02-14T04:38:47;103364.00000000001;;;4.87;100.0
37420;BME280;47344;52.374;4.816;2023-02-14T04:40:23;103364.00000000001;;;4.72;100.0
37420;BME280;47344;52.374;4.816;2023-02-14T04:43:35;103367.0;;;4.79;100.0
37420;BME280;47344;52.374;4.816;2023-02-14T04:45:12;103361.99999999999;;;4.76;100.0
37420;BME280;47344;52.374;4.816;2023-02-14T04:46:49;103358.99999999999;;;4.74;100.0
37420;BME280;47344;52.374;4.816;2023-02-14T04:50:01;103359.99999999999;;;4.67;100.0
37420;BME280;47344;52.374;4.816;2023-02-14T04:51:38;103365.00000000001;;;4.66;100.0
37420;BME280;47344;52.374;4.816;2023-02-14T04:53:14;103367.0;;;4.57;100.0
37420;BME280;47344;52.374;4.816;2023-02-14T04:54:51;103363.00000000001;;;4.49;100.0
37420;BME280;47344;52.374;4.816;2023-02-14T04:58:04;103364.00000000001;;;4.49;100.0
37420;BME280;47344;52.374;4.816;2023-02-14T04:59:40;103358.99999999999;;;4.67;100.0
37420;BME280;47344;52.374;4.816;2023-02-14T05:01:16;103354.0;;;4.7;100.0
37420;BME280;47344;52.374;4.816;2023-02-14T05:04:29;103358.0;;;4.68;100.0
37420;BME280;47344;52.374;4.816;2023-02-14T05:06:05;103356.0;;;4.71;100.0
37420;BME280;47344;52.374;4.816;2023-02-14T05:07:42;103357.0;;;4.75;100.0
37420;BME280;47344;52.374;4.816;2023-02-14T05:10:54;103356.0;;;4.79;100.0
37420;BME280;47344;52.374;4.816;2023-02-14T05:12:30;103349.0;;;4.88;100.0
37420;BME280;47344;52.374;4.816;2023-02-14T05:14:07;103353.0;;;4.78;100.0
37420;BME280;47344;52.374;4.816;2023-02-14T05:15:44;103351.0;;;4.78;100.0
37420;BME280;47344;52.374;4.816;2023-02-14T05:18:56;103355.0;;;4.78;100.0
37420;BME280;47344;52.374;4.816;2023-02-14T05:20:32;103350.0;;;4.82;100.0
37420;BME280;47344;52.374;4.816;2023-02-14T05:22:08;103349.0;;;4.83;100.0
37420;BME280;47344;52.374;4.816;2023-02-14T05:25:21;103351.0;;;4.89;100.0
37420;BME280;47344;52.374;4.816;2023-02-14T05:26:57;103351.0;;;4.76;100.0
37420;BME280;47344;52.374;4.816;2023-02-14T05:28:33;103348.0;;;4.61;100.0
37420;BME280;47344;52.374;4.816;2023-02-14T05:31:48;103344.0;;;4.78;100.0
37420;BME280;47344;52.374;4.816;2023-02-14T05:33:25;103348.0;;;4.84;100.0
37420;BME280;47344;52.374;4.816;2023-02-14T05:35:02;103347.0;;;4.78;100.0
37420;BME280;47344;52.374;4.816;2023-02-14T05:36:39;103347.0;;;4.87;100.0
37420;BME280;47344;52.374;4.816;2023-02-14T05:39:51;103349.0;;;4.87;100.0
37420;BME280;47344;52.374;4.816;2023-02-14T05:41:28;103349.0;;;4.87;100.0
37420;BME280;47344;52.374;4.816;2023-02-14T05:43:05;103343.0;;;4.66;100.0
37420;BME280;47344;52.374;4.816;2023-02-14T05:46:18;103350.0;;;4.62;100.0
37420;BME280;47344;52.374;4.816;2023-02-14T05:47:54;103353.0;;;4.66;100.0
37420;BME280;47344;52.374;4.816;2023-02-14T05:49:30;103349.0;;;4.61;100.0
37420;BME280;47344;52.374;4.816;2023-02-14T05:52:45;103349.0;;;4.51;100.0
37420;BME280;47344;52.374;4.816;2023-02-14T05:54:21;103349.0;;;4.61;100.0
37420;BME280;47344;52.374;4.816;2023-02-14T05:55:57;103344.0;;;4.59;100.0
37420;BME280;47344;52.374;4.816;2023-02-14T05:57:33;103344.0;;;4.62;100.0
37420;BME280;47344;52.374;4.816;2023-02-14T06:00:46;103338.00000000001;;;4.68;100.0
37420;BME280;47344;52.374;4.816;2023-02-14T06:02:23;103345.0;;;4.62;100.0
37420;BME280;47344;52.374;4.816;2023-02-14T06:03:59;103343.0;;;4.71;100.0
37420;BME280;47344;52.374;4.816;2023-02-14T06:07:11;103336.99999999999;;;4.74;100.0
37420;BME280;47344;52.374;4.816;2023-02-14T06:08:47;103341.00000000001;;;4.76;100.0
37420;BME280;47344;52.374;4.816;2023-02-14T06:10:24;103343.0;;;4.82;100.0
37420;BME280;47344;52.374;4.816;2023-02-14T06:13:37;103339.00000000001;;;4.7;100.0
37420;BME280;47344;52.374;4.816;2023-02-14T06:15:13;103339.00000000001;;;4.75;100.0
37420;BME280;47344;52.374;4.816;2023-02-14T06:16:50;103338.00000000001;;;4.7;100.0
37420;BME280;47344;52.374;4.816;2023-02-14T06:18:28;103342.0;;;4.78;100.0
37420;BME280;47344;52.374;4.816;2023-02-14T06:21:42;103339.00000000001;;;4.7;100.0
37420;BME280;47344;52.374;4.816;2023-02-14T06:23:18;103342.0;;;4.76;100.0
37420;BME280;47344;52.374;4.816;2023-02-14T06:24:54;103342.0;;;4.71;100.0
37420;BME280;47344;52.374;4.816;2023-02-14T06:28:08;103346.0;;;4.75;100.0
37420;BME280;47344;52.374;4.816;2023-02-14T06:29:44;103339.00000000001;;;4.79;100.0
37420;BME280;47344;52.374;4.816;2023-02-14T06:31:20;103334.99999999999;;;4.86;100.0
37420;BME280;47344;52.374;4.816;2023-02-14T06:34:39;103336.99999999999;;;4.88;100.0
37420;BME280;47344;52.374;4.816;2023-02-14T06:36:15;103332.0;;;4.93;100.0
37420;BME280;47344;52.374;4.816;2023-02-14T06:37:52;103334.99999999999;;;5.03;100.0
37420;BME280;47344;52.374;4.816;2023-02-14T06:39:28;103331.0;;;5.09;100.0
37420;BME280;47344;52.374;4.816;2023-02-14T06:42:43;103333.0;;;5.07;100.0
37420;BME280;47344;52.374;4.816;2023-02-14T06:44:19;103331.0;;;5.13;100.0
37420;BME280;47344;52.374;4.816;2023-02-14T06:45:56;103334.99999999999;;;5.21;100.0
37420;BME280;47344;52.374;4.816;2023-02-14T06:49:08;103329.0;;;5.16;100.0
37420;BME280;47344;52.374;4.816;2023-02-14T06:50:45;103331.0;;;5.18;100.0
37420;BME280;47344;52.374;4.816;2023-02-14T06:52:22;103327.0;;;5.24;100.0
37420;BME280;47344;52.374;4.816;2023-02-14T06:55:34;103323.0;;;5.23;100.0
37420;BME280;47344;52.374;4.816;2023-02-14T06:57:11;103327.0;;;5.26;100.0
37420;BME280;47344;52.374;4.816;2023-02-14T06:58:47;103333.0;;;5.33;100.0
37420;BME280;47344;52.374;4.816;2023-02-14T07:00:23;103338.00000000001;;;5.29;100.0
37420;BME280;47344;52.374;4.816;2023-02-14T07:03:35;103332.0;;;5.35;100.0
37420;BME280;47344;52.374;4.816;2023-02-14T07:05:12;103334.99999999999;;;5.36;100.0
37420;BME280;47344;52.374;4.816;2023-02-14T07:06:48;103340.00000000001;;;5.33;100.0
37420;BME280;47344;52.374;4.816;2023-02-14T07:10:02;103339.00000000001;;;5.35;100.0
37420;BME280;47344;52.374;4.816;2023-02-14T07:11:38;103334.99999999999;;;5.32;100.0
37420;BME280;47344;52.374;4.816;2023-02-14T07:13:14;103339.00000000001;;;5.26;100.0
37420;BME280;47344;52.374;4.816;2023-02-14T07:16:27;103333.99999999999;;;5.2;100.0
37420;BME280;47344;52.374;4.816;2023-02-14T07:18:03;103340.00000000001;;;5.19;100.0
37420;BME280;47344;52.374;4.816;2023-02-14T07:19:40;103345.0;;;5.21;100.0
37420;BME280;47344;52.374;4.816;2023-02-14T07:21:16;103344.0;;;5.24;100.0
37420;BME280;47344;52.374;4.816;2023-02-14T07:24:30;103345.0;;;5.17;100.0
37420;BME280;47344;52.374;4.816;2023-02-14T07:26:07;103348.0;;;5.03;100.0
37420;BME280;47344;52.374;4.816;2023-02-14T07:27:43;103348.0;;;4.99;100.0
37420;BME280;47344;52.374;4.816;2023-02-14T07:30:58;103356.0;;;4.91;100.0
37420;BME280;47344;52.374;4.816;2023-02-14T07:32:35;103353.0;;;4.89;100.0
37420;BME280;47344;52.374;4.816;2023-02-14T07:34:12;103352.0;;;4.95;100.0
37420;BME280;47344;52.374;4.816;2023-02-14T07:35:50;103355.0;;;4.99;100.0
37420;BME280;47344;52.374;4.816;2023-02-14T07:39:02;103359.99999999999;;;4.92;100.0
37420;BME280;47344;52.374;4.816;2023-02-14T07:40:38;103355.0;;;4.99;100.0
37420;BME280;47344;52.374;4.816;2023-02-14T07:42:14;103352.0;;;5.09;100.0
37420;BME280;47344;52.374;4.816;2023-02-14T07:45:27;103351.0;;;5.03;100.0
37420;BME280;47344;52.374;4.816;2023-02-14T07:47:04;103353.0;;;5.07;100.0
37420;BME280;47344;52.374;4.816;2023-02-14T07:48:41;103353.0;;;5.18;100.0
37420;BME280;47344;52.374;4.816;2023-02-14T07:51:54;103355.0;;;5.21;100.0
37420;BME280;47344;52.374;4.816;2023-02-14T07:53:30;103353.0;;;5.11;100.0
37420;BME280;47344;52.374;4.816;2023-02-14T07:55:07;103357.0;;;5.08;100.0
37420;BME280;47344;52.374;4.816;2023-02-14T07:58:20;103354.0;;;5.08;100.0
37420;BME280;47344;52.374;4.816;2023-02-14T07:59:56;103352.0;;;5.09;100.0
37420;BME280;47344;52.374;4.816;2023-02-14T08:03:08;103357.0;;;5.07;100.0
37420;BME280;47344;52.374;4.816;2023-02-14T08:06:21;103346.0;;;5.05;100.0
37420;BME280;47344;52.374;4.816;2023-02-14T08:07:57;103354.0;;;5.18;100.0
37420;BME280;47344;52.374;4.816;2023-02-14T08:09:33;103354.0;;;5.21;100.0
37420;BME280;47344;52.374;4.816;2023-02-14T08:13:00;103347.0;;;5.28;100.0
37420;BME280;47344;52.374;4.816;2023-02-14T08:14:38;103350.0;;;5.25;100.0
37420;BME280;47344;52.374;4.816;2023-02-14T08:16:14;103348.0;;;5.23;100.0
37420;BME280;47344;52.374;4.816;2023-02-14T08:17:50;103348.0;;;5.3;100.0
37420;BME280;47344;52.374;4.816;2023-02-14T08:21:05;103351.0;;;5.22;100.0
37420;BME280;47344;52.374;4.816;2023-02-14T08:22:42;103345.0;;;5.3;100.0
37420;BME280;47344;52.374;4.816;2023-02-14T08:24:18;103350.0;;;5.38;100.0
37420;BME280;47344;52.374;4.816;2023-02-14T08:27:31;103351.0;;;5.43;100.0
37420;BME280;47344;52.374;4.816;2023-02-14T08:29:07;103349.0;;;5.45;100.0
37420;BME280;47344;52.374;4.816;2023-02-14T08:30:44;103356.0;;;5.48;100.0
37420;BME280;47344;52.374;4.816;2023-02-14T08:32:21;103355.0;;;5.46;100.0
37420;BME280;47344;52.374;4.816;2023-02-14T08:35:34;103357.0;;;5.5;100.0
37420;BME280;47344;52.374;4.816;2023-02-14T08:37:10;103357.0;;;5.52;100.0
37420;BME280;47344;52.374;4.816;2023-02-14T08:38:47;103355.0;;;5.59;100.0
37420;BME280;47344;52.374;4.816;2023-02-14T08:42:00;103358.99999999999;;;5.66;100.0
37420;BME280;47344;52.374;4.816;2023-02-14T08:43:36;103364.00000000001;;;5.55;100.0
37420;BME280;47344;52.374;4.816;2023-02-14T08:45:12;103363.00000000001;;;5.64;100.0
37420;BME280;47344;52.374;4.816;2023-02-14T08:48:26;103364.00000000001;;;5.68;100.0
37420;BME280;47344;52.374;4.816;2023-02-14T08:50:03;103361.99999999999;;;5.69;100.0
37420;BME280;47344;52.374;4.816;2023-02-14T08:51:40;103363.00000000001;;;5.81;100.0
37420;BME280;47344;52.374;4.816;2023-02-14T08:53:16;103366.00000000001;;;5.88;100.0
37420;BME280;47344;52.374;4.816;2023-02-14T08:56:28;103369.0;;;5.84;100.0
37420;BME280;47344;52.374;4.816;2023-02-14T08:58:05;103367.0;;;5.82;100.0
37420;BME280;47344;52.374;4.816;2023-02-14T08:59:43;103361.99999999999;;;5.96;100.0
37420;BME280;47344;52.374;4.816;2023-02-14T09:02:56;103366.00000000001;;;5.95;100.0
37420;BME280;47344;52.374;4.816;2023-02-14T09:04:33;103363.00000000001;;;6.1;100.0
37420;BME280;47344;52.374;4.816;2023-02-14T09:06:12;103352.0;;;6.14;100.0
37420;BME280;47344;52.374;4.816;2023-02-14T09:09:26;103349.0;;;6.23;100.0
37420;BME280;47344;52.374;4.816;2023-02-14T09:11:06;103353.0;;;6.22;100.0
37420;BME280;47344;52.374;4.816;2023-02-14T09:12:42;103352.0;;;6.26;100.0
37420;BME280;47344;52.374;4.816;2023-02-14T09:14:20;103354.0;;;6.35;100.0
37420;BME280;47344;52.374;4.816;2023-02-14T09:17:33;103356.0;;;6.36;100.0
37420;BME280;47344;52.374;4.816;2023-02-14T09:19:10;103353.0;;;6.31;100.0
37420;BME280;47344;52.374;4.816;2023-02-14T09:20:45;103355.0;;;6.44;100.0
37420;BME280;47344;52.374;4.816;2023-02-14T09:23:58;103355.0;;;6.43;100.0
37420;BME280;47344;52.374;4.816;2023-02-14T09:25:34;103355.0;;;6.49;100.0
37420;BME280;47344;52.374;4.816;2023-02-14T09:27:10;103351.0;;;6.56;100.0
37420;BME280;47344;52.374;4.816;2023-02-14T09:30:23;103352.0;;;6.61;100.0
37420;BME280;47344;52.374;4.816;2023-02-14T09:32:01;103356.0;;;6.66;100.0
37420;BME280;47344;52.374;4.816;2023-02-14T09:34:54;103351.0;;;6.79;100.0
37420;BME280;47344;52.374;4.816;2023-02-14T09:38:19;103348.0;;;6.75;100.0
37420;BME280;47344;52.374;4.816;2023-02-14T09:39:55;103346.0;;;6.84;100.0
37420;BME280;47344;52.374;4.816;2023-02-14T09:41:48;103350.0;;;6.83;100.0
37420;BME280;47344;52.374;4.816;2023-02-14T09:43:48;103343.0;;;7.03;100.0
37420;BME280;47344;52.374;4.816;2023-02-14T09:47:17;103344.0;;;7.05;100.0
37420;BME280;47344;52.374;4.816;2023-02-14T09:48:55;103344.0;;;7.15;100.0
37420;BME280;47344;52.374;4.816;2023-02-14T09:50:39;103344.0;;;7.25;100.0
37420;BME280;47344;52.374;4.816;2023-02-14T09:52:19;103340.00000000001;;;7.29;100.0
37420;BME280;47344;52.374;4.816;2023-02-14T09:54:00;103346.0;;;7.31;100.0
37420;BME280;47344;52.374;4.816;2023-02-14T09:57:32;103347.0;;;7.35;100.0
37420;BME280;47344;52.374;4.816;2023-02-14T09:59:16;103346.0;;;7.41;100.0
37420;BME280;47344;52.374;4.816;2023-02-14T10:01:04;103342.0;;;7.5;100.0
37420;BME280;47344;52.374;4.816;2023-02-14T10:02:55;103346.0;;;7.37;100.0
37420;BME280;47344;52.374;4.816;2023-02-14T10:04:37;103346.0;;;7.41;100.0
37420;BME280;47344;52.374;4.816;2023-02-14T10:08:28;103347.0;;;7.4;100.0
37420;BME280;47344;52.374;4.816;2023-02-14T10:10:21;103342.0;;;7.52;100.0
37420;BME280;47344;52.374;4.816;2023-02-14T10:12:01;103336.99999999999;;;7.52;100.0
37420;BME280;47344;52.374;4.816;2023-02-14T10:13:43;103339.00000000001;;;7.61;100.0
37420;BME280;47344;52.374;4.816;2023-02-14T10:15:23;103334.99999999999;;;7.74;100.0
37420;BME280;47344;52.374;4.816;2023-02-14T10:17:05;103333.99999999999;;;7.94;100.0
37420;BME280;47344;52.374;4.816;2023-02-14T10:20:31;103339.00000000001;;;8.01;100.0
37420;BME280;47344;52.374;4.816;2023-02-14T10:22:14;103332.0;;;8.01;100.0
37420;BME280;47344;52.374;4.816;2023-02-14T10:23:56;103332.0;;;8.0;100.0
37420;BME280;47344;52.374;4.816;2023-02-14T10:25:40;103339.00000000001;;;8.17;100.0
37420;BME280;47344;52.374;4.816;2023-02-14T10:29:11;103343.0;;;8.26;100.0
37420;BME280;47344;52.374;4.816;2023-02-14T10:30:54;103340.00000000001;;;8.27;100.0
37420;BME280;47344;52.374;4.816;2023-02-14T10:32:48;103345.0;;;8.27;100.0
37420;BME280;47344;52.374;4.816;2023-02-14T10:34:34;103338.00000000001;;;8.32;100.0
37420;BME280;47344;52.374;4.816;2023-02-14T10:36:23;103339.00000000001;;;8.43;100.0
37420;BME280;47344;52.374;4.816;2023-02-14T10:38:15;103333.0;;;8.49;100.0
37420;BME280;47344;52.374;4.816;2023-02-14T10:40:08;103333.0;;;8.74;100.0
37420;BME280;47344;52.374;4.816;2023-02-14T10:43:47;103333.0;;;8.76;100.0
37420;BME280;47344;52.374;4.816;2023-02-14T10:45:33;103327.0;;;8.94;100.0
37420;BME280;47344;52.374;4.816;2023-02-14T10:47:25;103320.0;;;8.94;100.0
37420;BME280;47344;52.374;4.816;2023-02-14T10:49:16;103324.0;;;9.08;100.0
37420;BME280;47344;52.374;4.816;2023-02-14T10:51:03;103322.0;;;9.24;100.0
37420;BME280;47344;52.374;4.816;2023-02-14T10:52:54;103322.0;;;9.31;100.0
37420;BME280;47344;52.374;4.816;2023-02-14T10:54:41;103324.0;;;9.33;100.0
37420;BME280;47344;52.374;4.816;2023-02-14T10:58:05;103320.0;;;9.41;100.0
37420;BME280;47344;52.374;4.816;2023-02-14T10:59:50;103321.0;;;9.6;100.0
37420;BME280;47344;52.374;4.816;2023-02-14T11:01:29;103319.0;;;9.73;100.0
37420;BME280;47344;52.374;4.816;2023-02-14T11:03:07;103317.0;;;9.89;100.0
37420;BME280;47344;52.374;4.816;2023-02-14T11:06:23;103315.00000000001;;;9.81;100.0
37420;BME280;47344;52.374;4.816;2023-02-14T11:07:59;103309.99999999999;;;9.8;99.34
37420;BME280;47344;52.374;4.816;2023-02-14T11:09:36;103308.99999999999;;;9.78;100.0